Terminal Aerodrome Forecast
Issued by NWS Louisville, KY

Home | Current Version | Previous Version | Text Only | Print | Product List | Glossary On
Versions: 1 2 3 4 5 6 7 8 9 10 11 12 13
000
FTUS43 KLMK 202321
TAFBWG
TAF
KBWG 202321Z 2100/2124 18006KT P6SM BKN035
     FM211300 18008KT P6SM BKN025
     FM211900 18010KT P6SM BKN035=

USA.gov is the U.S. government's official web portal to all federal, state and local government web resources and services.